Time;durP1;ratioP1;P1;durP2;ratioP2;P2;SDS_P1;SDS_P2;PMS_P1;PMS_P2;Temp;Humidity;BMP_temperature;BMP_pressure;BME280_temperature;BME280_humidity;BME280_pressure;Samples;Min_cycle;Max_cycle;Signal;HPM_P1;HPM_P2
2023/05/22 17:24:39;;;;;;;52.58;39.17;;;;;;;;;;7285923;19;20838;-77
2023/05/22 17:27:05;;;;;;;55.95;41.00;;;;;;;;;;7329378;19;20034;-76
2023/05/22 17:29:30;;;;;;;58.25;40.60;;;;;;;;;;7338756;19;20103;-74
2023/05/22 17:31:55;;;;;;;59.58;41.95;;;;;;;;;;7348725;19;20374;-78
2023/05/22 17:34:21;;;;;;;59.80;41.33;;;;;;;;;;7362691;19;20119;-80
2023/05/22 17:36:46;;;;;;;59.10;42.37;;;;;;;;;;7360499;19;20046;-79
2023/05/22 17:39:11;;;;;;;64.60;43.17;;;;;;;;;;7364102;19;20270;-75
2023/05/22 17:41:36;;;;;;;56.07;41.97;;;;;;;;;;7343236;19;20274;-78
2023/05/22 17:44:02;;;;;;;57.45;42.83;;;;;;;;;;7363214;19;20003;-80
2023/05/22 17:46:27;;;;;;;64.30;44.30;;;;;;;;;;7339099;19;20438;-79
2023/05/22 17:48:54;;;;;;;58.80;42.70;;;;;;;;;;7329770;19;20236;-77
2023/05/22 17:51:19;;;;;;;61.70;44.38;;;;;;;;;;7349345;19;20514;-79
2023/05/22 17:53:44;;;;;;;61.65;44.53;;;;;;;;;;7358128;19;20015;-79
2023/05/22 17:56:09;;;;;;;64.03;45.37;;;;;;;;;;7350600;19;20006;-80
2023/05/22 17:58:34;;;;;;;63.17;42.65;;;;;;;;;;7354997;19;20735;-79
2023/05/22 18:01:00;;;;;;;68.30;46.27;;;;;;;;;;7349475;19;20009;-78
2023/05/22 18:03:25;;;;;;;71.17;47.07;;;;;;;;;;7350261;19;20457;-80
2023/05/22 18:05:50;;;;;;;66.40;47.30;;;;;;;;;;7361341;19;20259;-78
2023/05/22 18:08:16;;;;;;;74.63;49.60;;;;;;;;;;7344735;19;20230;-73
2023/05/22 18:10:41;;;;;;;59.60;43.65;;;;;;;;;;7330205;19;20028;-76
2023/05/22 18:13:07;;;;;;;66.20;45.83;;;;;;;;;;7347904;19;20304;-78
2023/05/22 18:15:32;;;;;;;58.65;43.03;;;;;;;;;;7350213;19;20712;-78
2023/05/22 18:17:57;;;;;;;61.87;43.97;;;;;;;;;;7312890;19;20474;-76
2023/05/22 18:20:23;;;;;;;74.55;44.08;;;;;;;;;;7339143;19;20002;-76
2023/05/22 18:22:48;;;;;;;65.18;43.35;;;;;;;;;;7335511;19;20014;-78
2023/05/22 18:25:13;;;;;;;60.10;41.27;;;;;;;;;;7363692;19;19994;-76
2023/05/22 18:27:38;;;;;;;59.60;42.70;;;;;;;;;;7346511;19;20672;-76
2023/05/22 18:30:04;;;;;;;56.17;42.03;;;;;;;;;;7368382;19;20026;-77
2023/05/22 18:32:29;;;;;;;56.42;40.83;;;;;;;;;;7368765;19;20458;-77
2023/05/22 18:34:57;;;;;;;59.70;41.65;;;;;;;;;;7366975;19;20023;-77
2023/05/22 18:37:22;;;;;;;57.60;42.13;;;;;;;;;;7378152;19;20495;-77
2023/05/22 18:39:47;;;;;;;59.50;41.95;;;;;;;;;;7354667;19;20022;-76
2023/05/22 18:42:13;;;;;;;60.20;39.60;;;;;;;;;;7366508;19;19998;-77
2023/05/22 18:44:38;;;;;;;60.03;41.53;;;;;;;;;;7369701;19;20143;-76
2023/05/22 18:47:03;;;;;;;62.37;42.60;;;;;;;;;;7374017;19;19995;-77
2023/05/22 18:49:28;;;;;;;60.95;44.78;;;;;;;;;;7374270;19;20359;-77
2023/05/22 18:51:53;;;;;;;70.05;43.33;;;;;;;;;;7371533;19;20118;-77
2023/05/22 18:54:19;;;;;;;64.53;43.60;;;;;;;;;;7376632;19;20026;-78
2023/05/22 18:56:44;;;;;;;66.30;46.60;;;;;;;;;;7360399;19;20002;-77
2023/05/22 18:59:09;;;;;;;59.67;43.25;;;;;;;;;;7368782;19;20005;-76
2023/05/22 19:01:34;;;;;;;61.45;43.88;;;;;;;;;;7352878;19;20077;-76
2023/05/22 19:03:59;;;;;;;64.53;45.43;;;;;;;;;;7359725;19;20309;-76
2023/05/22 19:06:25;;;;;;;63.90;45.22;;;;;;;;;;7365028;19;20275;-77
2023/05/22 19:08:50;;;;;;;65.60;43.77;;;;;;;;;;7365864;19;20216;-77
2023/05/22 19:11:16;;;;;;;63.47;44.53;;;;;;;;;;7369752;19;20228;-77
2023/05/22 19:13:42;;;;;;;64.78;46.47;;;;;;;;;;7368249;19;20022;-77
2023/05/22 19:16:07;;;;;;;73.00;47.60;;;;;;;;;;7366430;19;20019;-77
2023/05/22 19:18:32;;;;;;;61.35;45.28;;;;;;;;;;7361312;19;20408;-77
2023/05/22 19:20:58;;;;;;;60.30;45.03;;;;;;;;;;7363854;19;20023;-77
2023/05/22 19:23:23;;;;;;;69.40;47.50;;;;;;;;;;7361585;19;19999;-77
2023/05/22 19:25:49;;;;;;;72.13;45.28;;;;;;;;;;7356410;19;20006;-77
2023/05/22 19:28:14;;;;;;;69.70;46.75;;;;;;;;;;7353349;19;20082;-77
2023/05/22 19:30:40;;;;;;;65.45;46.17;;;;;;;;;;7354949;19;20002;-77
2023/05/22 19:33:06;;;;;;;72.88;48.60;;;;;;;;;;7357812;19;20066;-77
2023/05/22 19:35:31;;;;;;;71.93;48.72;;;;;;;;;;7343426;19;20475;-77
2023/05/22 19:37:56;;;;;;;67.63;48.97;;;;;;;;;;7352885;19;19998;-77
2023/05/22 19:40:21;;;;;;;77.57;52.93;;;;;;;;;;7354599;19;20122;-77
2023/05/22 19:42:46;;;;;;;77.28;54.15;;;;;;;;;;7351241;19;21186;-77
2023/05/22 19:45:12;;;;;;;74.40;52.30;;;;;;;;;;7354305;19;20011;-76
2023/05/22 19:47:37;;;;;;;81.77;53.80;;;;;;;;;;7351687;19;20250;-76
2023/05/22 19:50:02;;;;;;;83.53;55.20;;;;;;;;;;7360056;19;20483;-78
2023/05/22 19:52:31;;;;;;;86.95;60.95;;;;;;;;;;7325715;19;20371;-76
2023/05/22 19:54:56;;;;;;;86.28;58.80;;;;;;;;;;7351179;19;20013;-77
2023/05/22 19:57:21;;;;;;;79.38;56.15;;;;;;;;;;7354056;19;20011;-77
2023/05/22 19:59:46;;;;;;;92.30;62.72;;;;;;;;;;7360638;19;20503;-77
2023/05/22 20:02:11;;;;;;;86.40;58.57;;;;;;;;;;7358370;19;20395;-77
2023/05/22 20:04:41;;;;;;;98.13;64.23;;;;;;;;;;7359836;19;20330;-77
2023/05/22 20:07:07;;;;;;;90.85;59.38;;;;;;;;;;7347924;19;20077;-77
2023/05/22 20:09:32;;;;;;;84.25;58.00;;;;;;;;;;7336558;19;20038;-77
2023/05/22 20:11:57;;;;;;;97.17;63.27;;;;;;;;;;7347179;19;20014;-77
2023/05/22 20:14:22;;;;;;;95.30;64.75;;;;;;;;;;7336195;19;20255;-76
2023/05/22 20:16:48;;;;;;;93.77;62.50;;;;;;;;;;7344572;19;20410;-76
2023/05/22 20:19:13;;;;;;;91.17;63.13;;;;;;;;;;7359819;19;20003;-77
2023/05/22 20:21:38;;;;;;;102.57;67.85;;;;;;;;;;7373694;19;20234;-77
2023/05/22 20:24:10;;;;;;;101.17;67.80;;;;;;;;;;7365192;19;19998;-77
2023/05/22 20:26:36;;;;;;;111.22;71.10;;;;;;;;;;7353456;19;20348;-76
2023/05/22 20:29:01;;;;;;;100.00;65.37;;;;;;;;;;7355607;19;19994;-77
2023/05/22 20:31:26;;;;;;;110.03;74.40;;;;;;;;;;7350162;19;20002;-77
2023/05/22 20:33:51;;;;;;;113.28;72.97;;;;;;;;;;7355389;19;19999;-77
2023/05/22 20:36:17;;;;;;;110.28;70.53;;;;;;;;;;7368014;19;20003;-76
2023/05/22 20:38:42;;;;;;;108.22;73.32;;;;;;;;;;7341889;19;20003;-77
2023/05/22 20:41:08;;;;;;;120.87;75.93;;;;;;;;;;7360955;19;20055;-77
2023/05/22 20:43:33;;;;;;;122.70;75.25;;;;;;;;;;7359172;19;20873;-76
2023/05/22 20:45:58;;;;;;;107.15;71.65;;;;;;;;;;7350492;19;20026;-76
2023/05/22 20:48:24;;;;;;;120.47;76.10;;;;;;;;;;7375419;19;20152;-77
2023/05/22 20:50:49;;;;;;;120.70;76.57;;;;;;;;;;7364279;19;20006;-77
2023/05/22 20:53:15;;;;;;;107.32;71.55;;;;;;;;;;7366908;19;20018;-77
2023/05/22 20:55:40;;;;;;;112.40;76.82;;;;;;;;;;7369450;19;20003;-76
2023/05/22 20:58:05;;;;;;;107.28;70.22;;;;;;;;;;7363398;19;19994;-77
2023/05/22 21:00:30;;;;;;;110.33;74.07;;;;;;;;;;7362517;19;20535;-77
2023/05/22 21:02:56;;;;;;;112.57;74.03;;;;;;;;;;7363157;19;20259;-77
2023/05/22 21:05:21;;;;;;;123.35;78.68;;;;;;;;;;7361287;19;20285;-76
2023/05/22 21:07:46;;;;;;;129.30;79.57;;;;;;;;;;7366162;19;19997;-76
2023/05/22 21:10:11;;;;;;;116.47;76.20;;;;;;;;;;7366570;19;20221;-76
2023/05/22 21:12:36;;;;;;;117.60;74.70;;;;;;;;;;7357944;19;20542;-77
2023/05/22 21:15:02;;;;;;;121.68;80.35;;;;;;;;;;7349786;19;20123;-76
2023/05/22 21:17:27;;;;;;;112.28;76.82;;;;;;;;;;7367504;19;20351;-77
2023/05/22 21:19:52;;;;;;;114.43;77.43;;;;;;;;;;7363920;19;19991;-77
2023/05/22 21:22:17;;;;;;;105.15;73.88;;;;;;;;;;7359304;19;20022;-77
2023/05/22 21:24:42;;;;;;;115.47;75.83;;;;;;;;;;7360297;19;20016;-77
2023/05/22 21:27:08;;;;;;;115.73;75.43;;;;;;;;;;7358133;19;20420;-77
2023/05/22 21:29:33;;;;;;;110.90;73.13;;;;;;;;;;7367265;19;20287;-77
2023/05/22 21:31:58;;;;;;;109.93;70.90;;;;;;;;;;7370063;19;19999;-77
2023/05/22 21:34:23;;;;;;;102.88;70.80;;;;;;;;;;7364438;19;20655;-77
2023/05/22 21:36:48;;;;;;;108.20;68.63;;;;;;;;;;7345475;19;19999;-76
2023/05/22 21:39:14;;;;;;;100.45;66.57;;;;;;;;;;7355361;19;20316;-76
2023/05/22 21:41:39;;;;;;;100.15;66.13;;;;;;;;;;7368011;19;20086;-77
2023/05/22 21:44:04;;;;;;;92.27;63.17;;;;;;;;;;7364313;19;20007;-77
2023/05/22 21:46:30;;;;;;;95.68;63.08;;;;;;;;;;7369579;19;20139;-76
2023/05/22 21:48:55;;;;;;;99.13;62.95;;;;;;;;;;7361156;19;19999;-76
2023/05/22 21:51:20;;;;;;;91.47;62.50;;;;;;;;;;7350639;19;20593;-76
2023/05/22 21:53:45;;;;;;;96.07;60.10;;;;;;;;;;7359058;19;20335;-76
2023/05/22 21:56:10;;;;;;;89.63;59.90;;;;;;;;;;7363678;19;20312;-77
2023/05/22 21:58:36;;;;;;;89.93;59.90;;;;;;;;;;7367264;19;20003;-76
2023/05/22 22:01:01;;;;;;;95.53;61.70;;;;;;;;;;7320643;19;20022;-75
2023/05/22 22:03:26;;;;;;;95.53;62.72;;;;;;;;;;7300461;19;21006;-75
